Time;durP1;ratioP1;P1;durP2;ratioP2;P2;SDS_P1;SDS_P2;PMS_P1;PMS_P2;Temp;Humidity;BMP_temperature;BMP_pressure;BME280_temperature;BME280_humidity;BME280_pressure;Samples;Min_cycle;Max_cycle;Signal;HPM_P1;HPM_P2
2021/04/10 00:01:44;;;;;;;1.83;0.80;;;8.30;99.90;;;;;;5002219;28;20265;-91
2021/04/10 00:04:18;;;;;;;1.73;0.60;;;8.30;99.90;;;;;;5001415;28;20216;-90
2021/04/10 00:06:49;;;;;;;3.93;0.93;;;8.30;99.90;;;;;;4996394;28;20232;-91
2021/04/10 00:09:19;;;;;;;1.83;0.60;;;8.30;99.90;;;;;;4997359;28;20206;-90
2021/04/10 00:11:50;;;;;;;0.83;0.63;;;8.30;99.90;;;;;;4997540;28;20210;-90
2021/04/10 00:14:22;;;;;;;1.03;0.60;;;8.30;99.90;;;;;;4998202;28;20289;-91
2021/04/10 00:16:54;;;;;;;1.17;0.70;;;8.20;99.90;;;;;;4995823;28;20264;-92
2021/04/10 00:19:25;;;;;;;3.70;1.10;;;8.20;99.90;;;;;;5000914;28;20206;-91
2021/04/10 00:21:56;;;;;;;1.97;0.80;;;8.20;99.90;;;;;;5000247;28;20268;-90
2021/04/10 00:24:27;;;;;;;2.33;1.00;;;8.20;99.90;;;;;;5000183;28;20209;-91
2021/04/10 00:26:58;;;;;;;1.80;0.70;;;8.20;99.90;;;;;;4997098;28;20229;-91
2021/04/10 00:29:30;;;;;;;2.30;0.70;;;8.20;99.90;;;;;;4998491;28;20292;-91
2021/04/10 00:32:01;;;;;;;2.60;1.00;;;8.20;99.90;;;;;;4997605;28;20310;-92
2021/04/10 00:34:32;;;;;;;1.20;0.70;;;8.10;99.90;;;;;;4996212;28;20213;-92
2021/04/10 00:37:03;;;;;;;3.13;0.80;;;8.20;99.90;;;;;;4997218;28;20220;-92
2021/04/10 00:39:34;;;;;;;2.50;1.17;;;8.20;99.90;;;;;;5006549;28;20287;-92
2021/04/10 00:42:06;;;;;;;4.73;0.80;;;8.10;99.90;;;;;;4996806;28;20214;-91
2021/04/10 00:44:39;;;;;;;4.53;1.50;;;8.10;99.90;;;;;;5000722;28;20269;-91
2021/04/10 00:47:14;;;;;;;1.40;0.90;;;8.00;99.90;;;;;;5000070;28;20778;-91
2021/04/10 00:49:44;;;;;;;2.60;0.90;;;8.00;99.90;;;;;;4984964;28;20236;-91
2021/04/10 00:52:18;;;;;;;2.30;1.10;;;8.00;99.90;;;;;;4998235;28;20205;-91
2021/04/10 00:54:55;;;;;;;3.43;0.90;;;8.00;99.90;;;;;;4995977;28;20246;-92
2021/04/10 00:57:26;;;;;;;3.57;1.20;;;8.00;99.90;;;;;;4997068;28;20213;-91
2021/04/10 00:59:59;;;;;;;2.57;1.00;;;8.00;99.90;;;;;;4998966;28;20252;-91
2021/04/10 01:02:30;;;;;;;3.47;1.40;;;8.00;99.90;;;;;;5005559;28;20213;-93
2021/04/10 01:05:00;;;;;;;3.07;1.10;;;8.00;99.90;;;;;;5004884;28;20240;-91
2021/04/10 01:07:32;;;;;;;2.70;0.90;;;7.90;99.90;;;;;;5002998;28;20238;-91
2021/04/10 01:10:03;;;;;;;5.37;1.10;;;7.90;99.90;;;;;;5000492;28;20245;-92
2021/04/10 01:12:46;;;;;;;3.80;1.13;;;8.00;99.90;;;;;;4998126;28;20274;-91
2021/04/10 01:15:25;;;;;;;3.43;1.10;;;7.90;99.90;;;;;;4979196;28;20249;-91
2021/04/10 01:17:58;;;;;;;2.97;1.03;;;7.90;99.90;;;;;;4997858;28;20230;-90
2021/04/10 01:21:06;;;;;;;2.73;0.90;;;7.80;99.90;;;;;;4996051;28;20211;-91
2021/04/10 01:23:57;;;;;;;3.40;1.00;;;7.90;99.90;;;;;;4940989;29;20284;-91
2021/04/10 01:27:11;;;;;;;3.10;0.90;;;7.90;99.90;;;;;;4996171;28;20205;-91
2021/04/10 01:30:01;;;;;;;3.37;1.13;;;7.90;99.90;;;;;;4991203;28;20208;-91
2021/04/10 01:32:35;;;;;;;2.20;0.90;;;7.80;99.90;;;;;;5009495;28;20218;-91
2021/04/10 01:35:11;;;;;;;2.43;1.10;;;7.80;99.90;;;;;;5019376;28;20233;-92
2021/04/10 01:37:48;;;;;;;3.10;1.03;;;7.80;99.90;;;;;;5015475;28;20214;-92
2021/04/10 01:40:20;;;;;;;4.63;1.10;;;7.80;99.90;;;;;;5009254;28;20197;-91
2021/04/10 01:42:53;;;;;;;3.30;1.00;;;7.70;99.90;;;;;;5001498;28;20260;-92
2021/04/10 01:45:27;;;;;;;2.40;0.97;;;7.70;99.90;;;;;;5004519;28;20220;-90
2021/04/10 01:48:00;;;;;;;1.43;0.87;;;7.70;99.90;;;;;;5007334;28;20260;-91
2021/04/10 01:50:30;;;;;;;3.53;0.80;;;7.70;99.90;;;;;;5007054;28;20210;-92
2021/04/10 01:53:02;;;;;;;3.03;1.00;;;7.60;99.90;;;;;;5008363;28;20210;-91
2021/04/10 01:55:33;;;;;;;2.23;1.10;;;7.60;99.90;;;;;;4986356;28;20223;-91
2021/04/10 01:58:05;;;;;;;4.77;1.90;;;7.50;99.90;;;;;;4982778;28;20206;-92
2021/04/10 02:00:38;;;;;;;4.93;1.07;;;7.60;99.90;;;;;;4984839;28;20217;-92
2021/04/10 02:03:13;;;;;;;4.10;1.13;;;7.50;99.90;;;;;;4983715;28;20195;-92
2021/04/10 02:05:45;;;;;;;3.73;0.93;;;7.50;99.90;;;;;;4981448;28;20210;-91
2021/04/10 02:08:18;;;;;;;2.63;1.00;;;7.50;99.90;;;;;;4981600;28;20247;-92
2021/04/10 02:10:50;;;;;;;3.17;0.90;;;7.40;99.90;;;;;;4980707;28;20274;-91
2021/04/10 02:13:22;;;;;;;3.53;1.00;;;7.40;99.90;;;;;;4982156;28;20203;-91
2021/04/10 02:15:55;;;;;;;4.43;0.80;;;7.40;99.90;;;;;;4984072;28;20274;-90
2021/04/10 02:18:27;;;;;;;5.30;1.27;;;7.30;99.90;;;;;;4978096;28;20239;-91
2021/04/10 02:21:04;;;;;;;3.07;1.20;;;7.30;99.90;;;;;;4981519;28;20637;-90
2021/04/10 02:23:35;;;;;;;4.57;1.40;;;7.30;99.90;;;;;;4981917;28;20209;-91
2021/04/10 02:26:08;;;;;;;1.77;0.93;;;7.30;99.90;;;;;;4981151;28;20207;-92
2021/04/10 02:28:41;;;;;;;5.00;1.13;;;7.30;99.90;;;;;;4985115;28;20258;-93
2021/04/10 02:31:19;;;;;;;1.87;1.00;;;7.20;99.90;;;;;;4986592;28;20211;-91
2021/04/10 02:33:54;;;;;;;3.57;1.40;;;7.20;99.90;;;;;;4980435;28;20257;-90
2021/04/10 02:36:26;;;;;;;2.70;1.33;;;7.20;99.90;;;;;;4978801;28;20261;-92
2021/04/10 02:38:59;;;;;;;3.57;1.20;;;7.20;99.90;;;;;;4992674;28;20208;-91
2021/04/10 02:41:30;;;;;;;1.60;0.90;;;7.20;99.90;;;;;;4999496;28;20269;-93
2021/04/10 02:44:05;;;;;;;1.83;0.80;;;7.20;99.90;;;;;;5001931;28;20203;-92
2021/04/10 02:46:45;;;;;;;3.57;1.13;;;7.20;99.90;;;;;;4999083;28;20218;-93
2021/04/10 02:49:19;;;;;;;2.70;1.10;;;7.20;99.90;;;;;;4998053;28;20280;-93
2021/04/10 02:51:53;;;;;;;2.20;1.20;;;7.10;99.90;;;;;;5000809;28;20206;-92
2021/04/10 02:54:29;;;;;;;2.03;1.00;;;7.10;99.90;;;;;;5000909;28;20242;-93
2021/04/10 02:57:09;;;;;;;2.77;1.00;;;7.10;99.90;;;;;;5000040;28;20284;-92
2021/04/10 02:59:43;;;;;;;1.97;1.10;;;7.10;99.90;;;;;;5001250;28;20237;-92
2021/04/10 03:02:18;;;;;;;4.30;1.37;;;7.10;99.90;;;;;;5004369;28;20206;-93
2021/04/10 03:04:50;;;;;;;2.03;1.00;;;7.10;99.90;;;;;;5004036;28;20212;-93
2021/04/10 03:07:22;;;;;;;4.10;1.17;;;7.00;99.90;;;;;;5003844;28;20581;-90
2021/04/10 03:09:54;;;;;;;2.60;0.97;;;7.00;99.90;;;;;;5009516;28;20205;-93
2021/04/10 03:12:26;;;;;;;1.87;0.90;;;7.00;99.90;;;;;;5016714;28;20190;-92
2021/04/10 03:14:56;;;;;;;2.73;0.73;;;7.00;99.90;;;;;;5017976;28;20187;-92
2021/04/10 03:17:29;;;;;;;3.30;1.30;;;7.00;99.90;;;;;;5016918;28;20186;-91
2021/04/10 03:20:01;;;;;;;3.50;1.27;;;7.00;99.90;;;;;;5018270;28;20194;-91
2021/04/10 03:22:32;;;;;;;3.20;1.23;;;7.00;99.90;;;;;;5016155;28;20195;-91
2021/04/10 03:25:03;;;;;;;3.73;1.20;;;7.00;99.90;;;;;;5012097;28;20211;-92
2021/04/10 03:27:34;;;;;;;2.47;1.20;;;7.00;99.90;;;;;;4997599;28;20303;-91
2021/04/10 03:30:06;;;;;;;3.43;1.20;;;7.00;99.90;;;;;;4997951;28;20218;-93
2021/04/10 03:32:40;;;;;;;3.77;1.10;;;7.00;99.90;;;;;;5000380;28;20238;-92
2021/04/10 03:35:12;;;;;;;2.23;1.00;;;7.00;99.90;;;;;;4996869;28;20270;-92
2021/04/10 03:37:43;;;;;;;2.67;0.80;;;7.00;99.90;;;;;;4996737;28;20207;-92
2021/04/10 03:40:15;;;;;;;2.73;1.20;;;7.00;99.90;;;;;;4997706;28;20292;-93
2021/04/10 03:42:46;;;;;;;4.83;1.40;;;7.00;99.90;;;;;;4998007;28;20294;-93
2021/04/10 03:45:24;;;;;;;3.70;1.20;;;7.00;99.90;;;;;;5002773;28;20218;-92
2021/04/10 03:47:58;;;;;;;2.63;1.07;;;7.00;99.90;;;;;;4986366;28;20246;-92
2021/04/10 03:50:29;;;;;;;2.47;1.20;;;7.00;99.90;;;;;;4989289;28;20214;-92
2021/04/10 03:53:04;;;;;;;4.17;1.10;;;7.00;99.90;;;;;;4986833;28;20221;-93
2021/04/10 03:55:48;;;;;;;3.03;1.40;;;7.00;99.90;;;;;;4989029;28;20206;-93
2021/04/10 03:58:19;;;;;;;2.77;1.40;;;7.00;99.90;;;;;;4990268;28;20298;-93
2021/04/10 04:00:50;;;;;;;3.50;1.33;;;7.00;99.90;;;;;;4990768;28;20199;-92
2021/04/10 04:03:26;;;;;;;2.97;1.00;;;7.00;99.90;;;;;;4985309;28;20214;-92
2021/04/10 04:05:57;;;;;;;3.20;1.13;;;7.00;99.90;;;;;;4982842;28;20290;-92
2021/04/10 04:08:27;;;;;;;2.90;1.53;;;6.90;99.90;;;;;;4978691;28;20235;-90
2021/04/10 04:11:01;;;;;;;2.93;1.13;;;6.90;99.90;;;;;;4980022;28;20218;-91
2021/04/10 04:13:32;;;;;;;5.97;1.73;;;6.90;99.90;;;;;;4977463;28;20211;-90
2021/04/10 04:16:03;;;;;;;3.00;1.10;;;6.90;99.90;;;;;;4979150;28;20211;-93
2021/04/10 04:18:35;;;;;;;5.17;1.23;;;6.90;99.90;;;;;;4978403;28;20289;-92
2021/04/10 04:21:09;;;;;;;2.17;1.17;;;6.90;99.90;;;;;;4979182;28;20598;-91
2021/04/10 04:23:44;;;;;;;2.37;1.07;;;6.90;99.90;;;;;;4979652;28;20266;-95
2021/04/10 04:26:17;;;;;;;2.70;1.20;;;6.80;99.90;;;;;;4978320;28;20279;-91
2021/04/10 04:28:48;;;;;;;1.47;0.90;;;6.80;99.90;;;;;;4976477;28;20227;-91
2021/04/10 04:31:21;;;;;;;2.93;1.30;;;6.80;99.90;;;;;;4997118;28;20210;-91
2021/04/10 04:33:54;;;;;;;3.80;0.77;;;6.70;99.90;;;;;;4998034;28;20206;-91
2021/04/10 04:36:26;;;;;;;2.73;1.20;;;6.70;99.90;;;;;;4998890;28;20272;-90
2021/04/10 04:38:57;;;;;;;3.23;1.20;;;6.70;99.90;;;;;;4996499;28;20233;-92
2021/04/10 04:41:29;;;;;;;3.53;1.23;;;6.70;99.90;;;;;;4996638;28;20559;-91
2021/04/10 04:44:00;;;;;;;2.43;1.10;;;6.70;99.90;;;;;;4995005;28;20210;-92
2021/04/10 04:46:33;;;;;;;2.80;1.47;;;6.70;99.90;;;;;;4995529;28;20245;-93
2021/04/10 04:49:06;;;;;;;4.57;1.40;;;6.70;99.90;;;;;;4997421;28;20321;-93
2021/04/10 04:51:39;;;;;;;3.40;1.47;;;6.60;99.90;;;;;;4998954;28;20229;-91
2021/04/10 04:54:09;;;;;;;2.47;1.17;;;6.60;99.90;;;;;;5006623;28;20277;-92
2021/04/10 04:56:41;;;;;;;2.50;1.10;;;6.50;99.90;;;;;;4997849;28;20261;-93
2021/04/10 05:02:05;;;;;;;4.33;1.33;;;6.40;99.90;;;;;;5006589;28;20210;-92
2021/04/10 05:05:26;;;;;;;2.93;1.23;;;6.40;99.90;;;;;;5001482;28;20202;-92
2021/04/10 05:08:13;;;;;;;2.70;1.20;;;6.40;99.90;;;;;;4999386;28;20244;-92
2021/04/10 05:10:46;;;;;;;2.93;1.60;;;6.40;99.90;;;;;;5006485;28;20229;-92
2021/04/10 05:13:27;;;;;;;2.93;1.80;;;6.30;99.90;;;;;;5006255;28;20561;-92
2021/04/10 05:16:00;;;;;;;4.87;1.43;;;6.30;99.90;;;;;;5010787;28;20198;-92
2021/04/10 05:18:32;;;;;;;3.33;1.20;;;6.20;99.90;;;;;;5007623;28;20206;-93
2021/04/10 05:21:05;;;;;;;4.30;1.40;;;6.20;99.90;;;;;;5002762;28;20265;-92
2021/04/10 05:23:39;;;;;;;2.93;1.30;;;6.20;99.90;;;;;;4999232;28;20273;-91
2021/04/10 05:26:10;;;;;;;1.83;1.03;;;6.20;99.90;;;;;;4999225;28;20226;-91
2021/04/10 05:28:43;;;;;;;1.70;1.17;;;6.20;99.90;;;;;;5005924;28;20234;-92
2021/04/10 05:31:14;;;;;;;1.23;1.03;;;6.20;99.90;;;;;;5003758;28;20244;-93
2021/04/10 05:33:47;;;;;;;1.73;1.17;;;6.20;99.90;;;;;;5002960;28;20207;-92
2021/04/10 05:36:18;;;;;;;1.17;1.00;;;6.20;99.90;;;;;;5002617;28;20206;-91
2021/04/10 05:38:50;;;;;;;2.50;1.30;;;6.20;99.90;;;;;;5011749;28;20209;-94
2021/04/10 05:44:25;;;;;;;2.07;1.30;;;6.20;99.90;;;;;;5016036;28;20206;-91
2021/04/10 05:46:59;;;;;;;3.53;1.27;;;6.20;99.90;;;;;;5007412;28;20289;-92
2021/04/10 05:49:31;;;;;;;2.97;1.20;;;6.30;99.90;;;;;;5003601;28;20284;-92
2021/04/10 05:52:04;;;;;;;2.90;1.40;;;6.30;99.90;;;;;;5003353;28;20241;-94
2021/04/10 05:57:33;;;;;;;3.87;1.20;;;6.40;99.90;;;;;;5000673;28;20207;-96
2021/04/10 06:00:04;;;;;;;3.63;1.17;;;6.40;99.90;;;;;;5005893;28;20648;-92
2021/04/10 06:02:35;;;;;;;2.33;1.30;;;6.40;99.90;;;;;;5005732;28;20249;-91
2021/04/10 06:05:07;;;;;;;1.73;0.97;;;6.40;99.90;;;;;;5003149;28;20265;-92
2021/04/10 06:07:39;;;;;;;4.80;1.17;;;6.50;99.90;;;;;;5002483;28;20567;-93
2021/04/10 06:10:24;;;;;;;2.53;1.20;;;6.50;99.90;;;;;;5002470;28;20241;-92
2021/04/10 06:12:55;;;;;;;2.27;1.10;;;6.60;99.90;;;;;;5001401;28;20210;-91
2021/04/10 06:15:27;;;;;;;2.87;0.93;;;6.60;99.90;;;;;;5001828;28;20210;-93
2021/04/10 06:18:02;;;;;;;2.33;1.10;;;6.60;99.90;;;;;;5003149;28;20214;-92
2021/04/10 06:20:34;;;;;;;4.03;0.90;;;6.60;99.90;;;;;;5008183;28;20257;-90
2021/04/10 06:23:06;;;;;;;2.60;1.17;;;6.60;99.90;;;;;;5018910;28;20206;-90
2021/04/10 06:25:40;;;;;;;2.40;1.00;;;6.60;99.90;;;;;;5010935;28;20222;-92
2021/04/10 06:28:11;;;;;;;1.43;0.90;;;6.60;99.90;;;;;;5010739;28;20238;-92
2021/04/10 06:30:42;;;;;;;3.47;1.27;;;6.60;99.90;;;;;;5012337;28;20567;-91
2021/04/10 06:33:13;;;;;;;2.20;1.23;;;6.60;99.90;;;;;;5004912;28;20241;-90
2021/04/10 06:35:44;;;;;;;4.23;1.10;;;6.40;99.90;;;;;;4641863;28;10000201;-92
2021/04/10 06:38:16;;;;;;;2.77;1.10;;;6.30;99.90;;;;;;4980680;28;20258;-93
2021/04/10 06:40:49;;;;;;;2.53;1.03;;;6.30;99.90;;;;;;4999030;28;20202;-92
2021/04/10 06:43:30;;;;;;;1.33;0.90;;;6.30;99.90;;;;;;5009092;28;20217;-94
2021/04/10 06:46:12;;;;;;;0.90;0.87;;;6.20;99.90;;;;;;5008656;28;20214;-95
2021/04/10 06:48:47;;;;;;;1.33;1.00;;;6.20;99.90;;;;;;5008201;28;20240;-93
2021/04/10 06:51:30;;;;;;;2.10;0.90;;;6.10;99.90;;;;;;5002621;28;20234;-94
2021/04/10 06:54:03;;;;;;;2.87;1.03;;;6.10;99.90;;;;;;5001720;28;20202;-94
2021/04/10 06:56:39;;;;;;;2.37;1.00;;;6.20;99.90;;;;;;4997064;28;20297;-92
2021/04/10 06:59:16;;;;;;;3.27;1.00;;;6.10;99.90;;;;;;4999849;28;20206;-93
2021/04/10 07:01:48;;;;;;;1.73;0.90;;;6.20;99.90;;;;;;4998406;28;20245;-91
2021/04/10 07:04:20;;;;;;;1.27;0.90;;;6.20;99.90;;;;;;5002159;28;20237;-94
2021/04/10 07:07:08;;;;;;;2.30;0.93;;;6.20;99.90;;;;;;5012161;28;20202;-94
2021/04/10 07:09:45;;;;;;;1.60;0.90;;;6.20;99.90;;;;;;4997841;28;20628;-91
2021/04/10 07:12:19;;;;;;;1.83;0.80;;;6.20;99.90;;;;;;5002093;28;20301;-92
2021/04/10 07:14:50;;;;;;;2.77;1.00;;;6.20;99.90;;;;;;5002235;28;20244;-92
2021/04/10 07:17:22;;;;;;;1.20;0.70;;;6.20;99.90;;;;;;5005460;28;20282;-92
2021/04/10 07:19:53;;;;;;;1.23;0.67;;;6.20;99.90;;;;;;4998656;28;20264;-92
2021/04/10 07:22:24;;;;;;;0.93;0.60;;;6.20;99.90;;;;;;5001474;28;20199;-91
2021/04/10 07:24:58;;;;;;;2.13;0.70;;;6.30;99.90;;;;;;4986765;28;20203;-91
2021/04/10 07:27:32;;;;;;;1.67;0.90;;;6.30;99.90;;;;;;4989903;28;20241;-92
2021/04/10 07:30:17;;;;;;;1.83;0.80;;;6.30;99.90;;;;;;4993824;28;20214;-93
2021/04/10 07:32:49;;;;;;;0.60;0.50;;;6.30;99.90;;;;;;5002582;28;20214;-91
2021/04/10 07:35:24;;;;;;;1.77;0.53;;;6.30;99.90;;;;;;4981997;28;20211;-92
2021/04/10 07:37:55;;;;;;;2.03;0.80;;;6.30;99.90;;;;;;4977765;28;20211;-92
2021/04/10 07:43:34;;;;;;;1.60;0.40;;;6.20;99.90;;;;;;4984892;28;20218;-92
2021/04/10 07:46:20;;;;;;;0.70;0.50;;;6.20;99.90;;;;;;4984549;28;20219;-91
2021/04/10 07:49:16;;;;;;;1.13;0.50;;;6.10;99.90;;;;;;4983843;28;20246;-91
2021/04/10 07:51:55;;;;;;;1.13;0.50;;;6.10;99.90;;;;;;4983041;28;20300;-92
2021/04/10 07:54:29;;;;;;;1.27;0.50;;;6.00;99.90;;;;;;4982733;28;20225;-91
2021/04/10 07:57:05;;;;;;;0.50;0.50;;;6.00;99.90;;;;;;4977279;28;20214;-93
2021/04/10 07:59:56;;;;;;;0.77;0.43;;;6.00;99.90;;;;;;4968900;28;20207;-93
2021/04/10 08:02:34;;;;;;;1.13;0.40;;;6.00;99.90;;;;;;4977564;28;20215;-94
2021/04/10 08:05:16;;;;;;;1.70;0.47;;;6.00;99.90;;;;;;4982332;28;20723;-92
2021/04/10 08:08:09;;;;;;;1.23;0.60;;;6.00;99.90;;;;;;4985399;28;20246;-94
2021/04/10 08:10:40;;;;;;;1.27;0.50;;;6.00;99.90;;;;;;4976738;28;20203;-94
2021/04/10 08:13:13;;;;;;;1.33;0.70;;;6.00;99.90;;;;;;4979176;28;20218;-95
2021/04/10 08:15:48;;;;;;;2.50;0.97;;;6.00;99.90;;;;;;4980083;28;20265;-91
2021/04/10 08:18:26;;;;;;;4.07;0.80;;;5.90;99.90;;;;;;4978100;28;20211;-91
2021/04/10 08:21:01;;;;;;;1.40;0.57;;;5.90;99.90;;;;;;4991317;28;20238;-92
2021/04/10 08:23:32;;;;;;;4.90;0.90;;;5.90;99.90;;;;;;4998559;28;20226;-92
2021/04/10 08:26:06;;;;;;;2.40;0.77;;;5.90;99.90;;;;;;5000159;28;20232;-91
2021/04/10 08:28:41;;;;;;;2.13;0.97;;;5.90;99.90;;;;;;4997873;28;20258;-92
2021/04/10 08:31:14;;;;;;;4.53;1.43;;;5.90;99.90;;;;;;4998947;28;20265;-91
2021/04/10 08:33:45;;;;;;;2.43;0.73;;;6.00;99.90;;;;;;4999940;28;20289;-92
2021/04/10 08:36:18;;;;;;;5.13;1.10;;;6.00;99.90;;;;;;4998860;28;20575;-92
2021/04/10 08:38:49;;;;;;;4.17;1.20;;;6.00;99.90;;;;;;5001032;28;20221;-92
2021/04/10 08:41:21;;;;;;;4.87;1.10;;;6.00;99.90;;;;;;4994995;28;20234;-92
2021/04/10 08:43:59;;;;;;;6.93;0.87;;;6.00;99.90;;;;;;5023304;28;20272;-92
2021/04/10 08:46:33;;;;;;;2.60;0.90;;;6.00;99.90;;;;;;5022021;28;20226;-92
2021/04/10 08:49:04;;;;;;;4.43;1.20;;;6.00;99.90;;;;;;5020479;28;20225;-90
2021/04/10 08:51:40;;;;;;;5.20;1.10;;;5.90;99.90;;;;;;5022784;28;20907;-94
2021/04/10 08:54:12;;;;;;;4.00;0.83;;;5.80;99.90;;;;;;5022691;28;20206;-93
2021/04/10 08:56:42;;;;;;;4.20;0.80;;;5.90;99.90;;;;;;5017535;28;20651;-92
2021/04/10 08:59:18;;;;;;;3.27;0.97;;;5.90;99.90;;;;;;5008936;28;20210;-93
2021/04/10 09:02:10;;;;;;;3.43;1.00;;;5.90;99.90;;;;;;5014593;28;20270;-93
2021/04/10 09:05:00;;;;;;;4.13;1.17;;;5.90;99.90;;;;;;5011967;28;20663;-93
2021/04/10 09:08:07;;;;;;;4.67;1.60;;;5.80;99.90;;;;;;5008008;28;20238;-94
2021/04/10 09:10:57;;;;;;;4.47;1.30;;;5.70;99.90;;;;;;5009829;28;20213;-91
2021/04/10 09:13:33;;;;;;;3.93;1.33;;;5.60;99.90;;;;;;5011551;28;20312;-93
2021/04/10 09:16:38;;;;;;;3.90;1.20;;;5.60;99.90;;;;;;5011858;28;20201;-91
2021/04/10 09:22:03;;;;;;;2.50;0.93;;;5.50;99.90;;;;;;4986081;28;20241;-91
2021/04/10 09:24:41;;;;;;;3.87;0.90;;;5.50;99.90;;;;;;4981684;28;20214;-91
2021/04/10 09:27:30;;;;;;;5.13;0.80;;;5.50;99.90;;;;;;4982769;28;20206;-91
2021/04/10 09:30:03;;;;;;;3.43;1.03;;;5.40;99.90;;;;;;4984870;28;20546;-91
2021/04/10 09:32:41;;;;;;;3.53;0.90;;;5.40;99.90;;;;;;5002510;28;20206;-90
2021/04/10 09:35:15;;;;;;;6.30;1.33;;;5.40;99.90;;;;;;5003092;28;20694;-91
2021/04/10 09:37:54;;;;;;;3.07;0.97;;;5.40;99.90;;;;;;5003755;28;20214;-91
2021/04/10 09:40:48;;;;;;;4.67;1.00;;;5.40;99.90;;;;;;5003339;28;20209;-91
2021/04/10 09:43:23;;;;;;;3.13;1.03;;;5.40;99.90;;;;;;5005923;28;20617;-91
2021/04/10 09:45:54;;;;;;;4.07;1.10;;;5.40;99.90;;;;;;5004007;28;20268;-91
2021/04/10 09:48:39;;;;;;;6.67;1.20;;;5.40;99.90;;;;;;5004672;28;20604;-91
2021/04/10 09:51:16;;;;;;;3.90;1.17;;;5.50;99.90;;;;;;5003999;28;20202;-91
2021/04/10 09:53:51;;;;;;;4.40;1.10;;;5.50;99.90;;;;;;5004614;28;20233;-90
2021/04/10 09:56:22;;;;;;;8.17;1.30;;;5.50;99.90;;;;;;4998766;28;20218;-91
2021/04/10 09:58:55;;;;;;;5.80;1.27;;;5.60;99.90;;;;;;5001723;28;20309;-91
2021/04/10 10:01:29;;;;;;;4.97;1.10;;;5.60;99.90;;;;;;5002430;28;20276;-95
2021/04/10 10:04:00;;;;;;;5.10;0.93;;;5.60;99.90;;;;;;5001139;28;20207;-92
2021/04/10 10:06:39;;;;;;;3.77;0.83;;;5.60;99.90;;;;;;4997929;28;20663;-92
2021/04/10 10:09:28;;;;;;;6.83;1.17;;;5.60;99.90;;;;;;5002489;28;20218;-91
2021/04/10 10:12:00;;;;;;;4.30;1.03;;;5.50;99.90;;;;;;5003226;28;20206;-91
2021/04/10 10:14:48;;;;;;;5.93;1.30;;;5.50;99.90;;;;;;5001411;28;20203;-91
2021/04/10 10:17:27;;;;;;;4.20;1.17;;;5.50;99.90;;;;;;4987649;28;20238;-91
2021/04/10 10:20:10;;;;;;;4.87;1.13;;;5.50;99.90;;;;;;4992379;28;20252;-90
2021/04/10 10:22:43;;;;;;;4.03;0.90;;;5.40;99.90;;;;;;5005753;28;20206;-91
2021/04/10 10:25:15;;;;;;;3.63;0.70;;;5.40;99.90;;;;;;5004828;28;20214;-88
2021/04/10 10:27:48;;;;;;;2.63;1.20;;;5.30;99.90;;;;;;4999114;28;20198;-91
2021/04/10 10:30:21;;;;;;;3.10;1.00;;;5.20;99.90;;;;;;4997500;28;20230;-91
2021/04/10 10:32:53;;;;;;;2.67;1.20;;;5.10;99.90;;;;;;4999794;28;20206;-90
2021/04/10 10:35:25;;;;;;;2.77;0.93;;;5.00;99.90;;;;;;4999057;28;20211;-91
2021/04/10 10:37:58;;;;;;;4.13;1.20;;;5.00;99.90;;;;;;4997161;28;20707;-89
2021/04/10 10:40:29;;;;;;;9.00;1.60;;;5.00;99.90;;;;;;4997869;28;20210;-91
2021/04/10 10:43:05;;;;;;;2.07;0.90;;;5.10;99.90;;;;;;4998732;28;20218;-91
2021/04/10 10:45:43;;;;;;;3.53;1.00;;;5.10;99.90;;;;;;5000737;28;20222;-91
2021/04/10 10:48:23;;;;;;;4.83;1.10;;;5.20;99.90;;;;;;4999363;28;20226;-90
2021/04/10 10:50:56;;;;;;;1.93;0.90;;;5.20;99.90;;;;;;5002359;28;20206;-91
2021/04/10 10:53:32;;;;;;;5.63;1.20;;;5.20;99.90;;;;;;5004746;28;20229;-92
2021/04/10 10:56:12;;;;;;;4.57;1.20;;;5.30;99.90;;;;;;5013779;28;20190;-92
2021/04/10 10:58:45;;;;;;;2.73;1.00;;;5.20;99.90;;;;;;5012571;28;20210;-92
2021/04/10 11:01:22;;;;;;;4.17;1.20;;;5.20;99.90;;;;;;5008947;28;20202;-91
2021/04/10 11:03:57;;;;;;;3.53;1.30;;;5.10;99.90;;;;;;5007703;28;20217;-91
2021/04/10 11:06:28;;;;;;;1.13;0.60;;;5.10;99.90;;;;;;5002683;28;20203;-91
2021/04/10 11:09:05;;;;;;;1.07;0.63;;;5.20;99.90;;;;;;5000584;28;20232;-91
2021/04/10 11:11:39;;;;;;;1.33;0.50;;;5.10;99.90;;;;;;4999641;28;20321;-91
2021/04/10 11:14:11;;;;;;;2.63;0.40;;;5.10;99.90;;;;;;5003757;28;20225;-91
2021/04/10 11:16:45;;;;;;;0.67;0.30;;;5.10;99.90;;;;;;5000201;28;20202;-91
2021/04/10 11:19:27;;;;;;;0.60;0.47;;;5.00;99.90;;;;;;4996210;28;20268;-90
2021/04/10 11:21:58;;;;;;;0.47;0.40;;;5.00;99.90;;;;;;4979461;28;20210;-91
2021/04/10 11:24:42;;;;;;;3.40;0.60;;;5.00;99.90;;;;;;4978102;28;20215;-90
2021/04/10 11:27:16;;;;;;;1.00;0.47;;;4.90;99.90;;;;;;4977267;28;20222;-90
2021/04/10 11:29:51;;;;;;;1.53;0.40;;;4.90;99.90;;;;;;4977735;28;20259;-89
2021/04/10 11:32:26;;;;;;;1.00;0.50;;;4.90;99.90;;;;;;4985876;28;20194;-91
2021/04/10 11:35:08;;;;;;;2.70;0.50;;;4.80;99.90;;;;;;5001570;28;20286;-90
2021/04/10 11:37:47;;;;;;;2.57;0.60;;;4.80;99.90;;;;;;5001187;28;20277;-91
2021/04/10 11:40:28;;;;;;;3.03;0.83;;;4.80;99.90;;;;;;5002893;28;20214;-90
2021/04/10 11:43:00;;;;;;;0.47;0.47;;;4.80;99.90;;;;;;5000579;28;20256;-90
2021/04/10 11:45:33;;;;;;;0.60;0.27;;;4.80;99.90;;;;;;4999338;28;20257;-90
2021/04/10 11:48:13;;;;;;;1.60;0.30;;;4.70;99.90;;;;;;5001051;28;20225;-90
2021/04/10 11:50:48;;;;;;;2.00;0.40;;;4.60;99.90;;;;;;5002811;28;20217;-92
2021/04/10 11:53:25;;;;;;;0.70;0.43;;;4.60;99.90;;;;;;4997253;28;20201;-91
2021/04/10 11:55:59;;;;;;;1.00;0.30;;;4.50;99.90;;;;;;4999192;28;20210;-91
2021/04/10 11:58:33;;;;;;;0.73;0.40;;;4.50;99.90;;;;;;4997055;28;20206;-91
2021/04/10 12:01:11;;;;;;;1.90;0.60;;;4.40;99.90;;;;;;4998766;28;20209;-91
2021/04/10 12:03:52;;;;;;;0.83;0.53;;;4.40;99.90;;;;;;5001551;28;20216;-91
2021/04/10 12:06:33;;;;;;;2.93;0.60;;;4.40;99.90;;;;;;5000407;28;20221;-92
2021/04/10 12:09:06;;;;;;;1.03;0.57;;;4.30;99.90;;;;;;4998893;28;20226;-91
2021/04/10 12:11:41;;;;;;;3.10;0.70;;;4.30;99.90;;;;;;4996646;28;20221;-92
2021/04/10 12:14:12;;;;;;;0.90;0.60;;;4.30;99.90;;;;;;4998432;28;20268;-92
2021/04/10 12:16:44;;;;;;;1.67;0.63;;;4.20;99.90;;;;;;4995077;28;20582;-92
2021/04/10 12:19:16;;;;;;;3.13;0.60;;;4.20;99.90;;;;;;4995985;28;20217;-91
2021/04/10 12:21:48;;;;;;;3.03;0.70;;;4.10;99.90;;;;;;4996700;28;20294;-90
2021/04/10 12:24:18;;;;;;;2.60;0.50;;;4.10;99.90;;;;;;4995985;28;20233;-91
2021/04/10 12:26:51;;;;;;;4.33;0.93;;;4.00;99.90;;;;;;4994837;28;20206;-90
2021/04/10 12:29:24;;;;;;;3.17;1.10;;;4.10;99.90;;;;;;4998183;28;20718;-91
2021/04/10 12:31:58;;;;;;;4.40;0.90;;;4.00;99.90;;;;;;5010727;28;20183;-89
2021/04/10 12:34:28;;;;;;;3.13;0.70;;;3.90;99.90;;;;;;5016352;28;20221;-91
2021/04/10 12:37:00;;;;;;;3.17;1.00;;;3.90;99.90;;;;;;5027744;28;20201;-90
2021/04/10 12:39:30;;;;;;;5.00;1.00;;;3.90;99.90;;;;;;5023551;28;20225;-89
2021/04/10 12:42:02;;;;;;;3.97;1.30;;;3.80;99.90;;;;;;5029433;28;20217;-91
2021/04/10 12:44:34;;;;;;;5.70;1.30;;;3.80;99.90;;;;;;5026198;28;20201;-90
2021/04/10 12:47:07;;;;;;;5.37;1.00;;;3.90;99.90;;;;;;5019779;28;20284;-89
2021/04/10 12:49:38;;;;;;;5.07;1.30;;;3.80;99.90;;;;;;5017394;28;20229;-90
2021/04/10 12:52:09;;;;;;;4.77;1.20;;;3.80;99.90;;;;;;5016725;28;20279;-91
2021/04/10 12:54:39;;;;;;;5.00;1.40;;;3.70;99.90;;;;;;5020461;28;20283;-91
2021/04/10 12:57:12;;;;;;;2.83;1.00;;;3.70;99.90;;;;;;5019331;28;20292;-91
2021/04/10 12:59:43;;;;;;;4.27;0.97;;;3.70;99.90;;;;;;5017571;28;20202;-92
2021/04/10 13:02:14;;;;;;;7.93;1.03;;;3.70;99.90;;;;;;5016095;28;20554;-92
2021/04/10 13:04:45;;;;;;;3.57;1.20;;;3.70;99.90;;;;;;5015527;28;20347;-91
2021/04/10 13:07:16;;;;;;;6.60;1.33;;;3.50;99.90;;;;;;5015435;28;20288;-93
2021/04/10 13:09:51;;;;;;;5.30;0.87;;;3.50;99.90;;;;;;5019929;28;20236;-92
2021/04/10 13:12:24;;;;;;;5.13;0.87;;;3.40;99.90;;;;;;5027031;28;20209;-92
2021/04/10 13:14:56;;;;;;;4.27;0.90;;;3.30;99.90;;;;;;5027414;28;20577;-91
2021/04/10 13:17:27;;;;;;;5.90;1.10;;;3.30;99.90;;;;;;5024664;28;20251;-93
2021/04/10 13:20:00;;;;;;;8.20;1.13;;;3.10;99.90;;;;;;5015694;28;20226;-91
2021/04/10 13:22:32;;;;;;;5.20;1.13;;;3.00;99.90;;;;;;4996671;28;20206;-92
2021/04/10 13:25:03;;;;;;;5.20;1.27;;;2.80;99.90;;;;;;4998014;28;20297;-91
2021/04/10 13:27:36;;;;;;;5.20;0.87;;;2.70;99.90;;;;;;4993818;28;20220;-92
2021/04/10 13:30:09;;;;;;;4.70;1.40;;;2.70;99.90;;;;;;4997964;28;20281;-91
2021/04/10 13:32:40;;;;;;;6.00;1.30;;;2.70;99.90;;;;;;4999176;28;20209;-93
2021/04/10 13:35:16;;;;;;;5.90;1.20;;;2.60;99.90;;;;;;4999808;28;20233;-92
2021/04/10 13:37:47;;;;;;;5.53;1.30;;;2.70;99.90;;;;;;4998767;28;20643;-92
2021/04/10 13:40:18;;;;;;;7.20;1.47;;;2.70;99.90;;;;;;4998794;28;20203;-92
2021/04/10 13:42:52;;;;;;;4.47;0.97;;;2.70;99.90;;;;;;4999635;28;20221;-91
2021/04/10 13:45:22;;;;;;;8.77;1.07;;;2.80;99.90;;;;;;4997856;28;20304;-92
2021/04/10 13:47:52;;;;;;;5.47;1.13;;;2.80;99.90;;;;;;4999134;28;20213;-91
2021/04/10 13:50:23;;;;;;;3.17;1.03;;;2.80;99.90;;;;;;4999120;28;20233;-91
2021/04/10 13:52:54;;;;;;;7.00;1.30;;;2.80;99.90;;;;;;4999621;28;20209;-92